Rose Hill, Alabama
Current Conditions -  °F | °C
As of 10:53 PM on Tuesday 25 Nov 2014 (Local Time) from KBHM Reporting Station
Overcast Overcast  
Wind Chill: 41°   Ceiling: 10000
Heat Index: 46°   Visibility: 10mi
Dew Point: 29°   Wind: 12mph
Humidity: 51%   Direction: 320°NW
Pressure: 30.14"   Gusts: NA
Location:  33.5393°N, 86.6626°W
Report Text: KBHM 260453Z 32010KT 10SM OVC100 08/M02 A3014 RMK AO2 SLP204 T00781017
Loading
Personal Weather Stations






























Interactive Weather Map New forecast layout! Learn more

10-Day Weather Forecast

Advertisements
Track Severe Weather on mobile